EDLN/MGL METAR and TAF weather

Enter ICAO airport designator
Station Type Date Time Source
EDLN METAR 2022/05/26 03:50 UTC NOAA

EDLN 260350Z AUTO 24006KT 200V300 9999 // OVC018/// 14/12 Q1018


Station Type Date Time Source
EDLN Decoded METAR 2022/05/26 03:50 UTC NOAA

Monchengladbach, Germany (EDLN) 51-13-49N 006-30-16E
May 25, 2022 - 11:50 PM EDT / 2022.05.26 0350 UTC
Wind: from the WSW (240 degrees) at 7 MPH (6 KT) (direction variable):0
Visibility: greater than 7 mile(s):0
Sky conditions: overcast
Temperature: 57 F (14 C)
Dew Point: 53 F (12 C)
Relative Humidity: 87%
Pressure (altimeter): 30.06 in. Hg (1018 hPa)
ob: EDLN 260350Z AUTO 24006KT 200V300 9999 // OVC018/// 14/12 Q1018
cycle: 4

Station Type Date Time Source
EDLN TAF 2010/02/22 14:20 UTC NOAA

METAR EDLN 221420Z 18010G20KT 090V240 9999 SCT030 BKN045 11/06 Q0986
RMK ATIS R=

Example: see airport list